Time;durP1;ratioP1;P1;durP2;ratioP2;P2;SDS_P1;SDS_P2;PMS_P1;PMS_P2;Temp;Humidity;BMP_temperature;BMP_pressure;BME280_temperature;BME280_humidity;BME280_pressure;Samples;Min_cycle;Max_cycle;Signal;HPM_P1;HPM_P2
2023/04/08 00:01:13;;;;;;;8.48;7.05;;;;;;;;;;5036491;28;20036;-77
2023/04/08 00:03:39;;;;;;;9.73;7.43;;;;;;;;;;5017464;28;20041;-78
2023/04/08 00:06:07;;;;;;;9.30;7.05;;;;;;;;;;5034007;28;20076;-77
2023/04/08 00:08:33;;;;;;;8.65;6.68;;;;;;;;;;5038938;28;20047;-78
2023/04/08 00:10:59;;;;;;;10.57;7.07;;;;;;;;;;5045919;28;20041;-77
2023/04/08 00:13:25;;;;;;;9.27;7.03;;;;;;;;;;5037240;28;20040;-79
2023/04/08 00:15:51;;;;;;;9.93;7.05;;;;;;;;;;5031348;28;20134;-77
2023/04/08 00:18:17;;;;;;;9.23;6.70;;;;;;;;;;5034163;28;20087;-78
2023/04/08 00:20:44;;;;;;;9.23;6.93;;;;;;;;;;5017449;28;20083;-78
2023/04/08 00:23:10;;;;;;;9.52;7.40;;;;;;;;;;5046322;28;20064;-78
2023/04/08 00:25:36;;;;;;;9.40;6.65;;;;;;;;;;5041320;28;20175;-78
2023/04/08 00:28:02;;;;;;;9.73;7.05;;;;;;;;;;5022952;28;20124;-79
2023/04/08 00:30:28;;;;;;;8.75;6.90;;;;;;;;;;5024176;28;20188;-79
2023/04/08 00:32:54;;;;;;;8.90;6.70;;;;;;;;;;5030427;28;20052;-78
2023/04/08 00:35:20;;;;;;;9.95;6.82;;;;;;;;;;5031249;28;20489;-78
2023/04/08 00:37:46;;;;;;;12.13;7.20;;;;;;;;;;5010155;28;20509;-78
2023/04/08 00:40:13;;;;;;;10.20;7.47;;;;;;;;;;5031231;28;20131;-78
2023/04/08 00:42:39;;;;;;;10.73;6.90;;;;;;;;;;5010628;28;20199;-78
2023/04/08 00:45:05;;;;;;;10.65;7.38;;;;;;;;;;5031622;28;20562;-78
2023/04/08 00:47:31;;;;;;;8.80;6.88;;;;;;;;;;5029960;28;20503;-78
2023/04/08 00:49:58;;;;;;;9.73;6.78;;;;;;;;;;5027447;28;20056;-79
2023/04/08 00:52:24;;;;;;;8.65;7.18;;;;;;;;;;5010999;28;20045;-78
2023/04/08 00:54:50;;;;;;;8.80;6.93;;;;;;;;;;5035618;28;20118;-78
2023/04/08 00:57:16;;;;;;;8.40;6.60;;;;;;;;;;5012323;28;20129;-79
2023/04/08 00:59:42;;;;;;;8.27;6.78;;;;;;;;;;5015603;28;20136;-78
2023/04/08 01:02:27;;;;;;;9.10;6.95;;;;;;;;;;5019425;28;20444;-78
2023/04/08 01:05:29;;;;;;;10.68;7.50;;;;;;;;;;5016127;28;20136;-78
2023/04/08 01:07:55;;;;;;;9.00;7.00;;;;;;;;;;4935916;29;20043;-78
2023/04/08 01:10:31;;;;;;;8.73;6.93;;;;;;;;;;5034516;28;20143;-78
2023/04/08 01:12:58;;;;;;;9.38;7.15;;;;;;;;;;5033920;28;20111;-78
2023/04/08 01:15:26;;;;;;;9.48;7.20;;;;;;;;;;5016903;28;20099;-78
2023/04/08 01:17:53;;;;;;;9.93;7.55;;;;;;;;;;5054562;28;20448;-78
2023/04/08 01:20:19;;;;;;;10.27;7.35;;;;;;;;;;5022562;28;20528;-78
2023/04/08 01:22:54;;;;;;;9.70;7.55;;;;;;;;;;5047803;28;20098;-79
2023/04/08 01:25:25;;;;;;;10.48;7.00;;;;;;;;;;5039948;28;20033;-78
2023/04/08 01:27:52;;;;;;;11.10;8.32;;;;;;;;;;5035665;28;20083;-79
2023/04/08 01:30:20;;;;;;;12.13;8.40;;;;;;;;;;5037856;28;20052;-78
2023/04/08 01:32:46;;;;;;;10.85;7.90;;;;;;;;;;5032088;28;20049;-78
2023/04/08 01:35:15;;;;;;;9.88;8.20;;;;;;;;;;5016611;28;20064;-78
2023/04/08 01:37:41;;;;;;;12.13;8.88;;;;;;;;;;5032342;28;20068;-79
2023/04/08 01:40:08;;;;;;;10.77;8.20;;;;;;;;;;5011632;28;20056;-78
2023/04/08 01:42:35;;;;;;;13.18;9.45;;;;;;;;;;5020614;28;20444;-78
2023/04/08 01:45:07;;;;;;;12.95;9.70;;;;;;;;;;5033352;28;20038;-78
2023/04/08 01:47:34;;;;;;;14.60;9.57;;;;;;;;;;5021212;28;20052;-78
2023/04/08 01:50:00;;;;;;;13.38;9.73;;;;;;;;;;5009530;28;20048;-78
2023/04/08 01:52:28;;;;;;;12.45;10.05;;;;;;;;;;5013249;28;20050;-78
2023/04/08 01:54:54;;;;;;;11.80;9.70;;;;;;;;;;5013712;28;20064;-78
2023/04/08 01:57:23;;;;;;;14.43;10.35;;;;;;;;;;5031490;28;20056;-78
2023/04/08 01:59:51;;;;;;;13.60;10.70;;;;;;;;;;5012155;28;20480;-78
2023/04/08 02:02:19;;;;;;;15.77;10.52;;;;;;;;;;5017856;28;20531;-79
2023/04/08 02:04:45;;;;;;;15.63;11.52;;;;;;;;;;5022154;28;20048;-78
2023/04/08 02:07:11;;;;;;;14.70;11.23;;;;;;;;;;5038334;28;20049;-78
2023/04/08 02:09:37;;;;;;;15.85;12.15;;;;;;;;;;5023724;28;20049;-78
2023/04/08 02:12:04;;;;;;;14.13;11.40;;;;;;;;;;5029266;28;20063;-78
2023/04/08 02:14:30;;;;;;;15.05;11.68;;;;;;;;;;5033753;28;20552;-78
2023/04/08 02:17:04;;;;;;;15.57;11.48;;;;;;;;;;5015196;28;20218;-78
2023/04/08 02:19:46;;;;;;;15.73;12.02;;;;;;;;;;5045156;28;20047;-79
2023/04/08 02:22:17;;;;;;;15.70;12.20;;;;;;;;;;5037764;28;20147;-78
2023/04/08 02:24:43;;;;;;;16.05;12.40;;;;;;;;;;5039252;28;20057;-79
2023/04/08 02:27:10;;;;;;;17.83;12.93;;;;;;;;;;5036737;28;20573;-79
2023/04/08 02:29:36;;;;;;;15.68;12.60;;;;;;;;;;5037565;28;20056;-78
2023/04/08 02:32:04;;;;;;;18.63;12.73;;;;;;;;;;5027472;28;20099;-78
2023/04/08 02:34:30;;;;;;;17.15;12.85;;;;;;;;;;5041250;28;20053;-78
2023/04/08 02:36:56;;;;;;;16.20;12.98;;;;;;;;;;5017594;28;20045;-79
2023/04/08 02:39:30;;;;;;;16.23;13.30;;;;;;;;;;5028652;28;20041;-79
2023/04/08 02:41:56;;;;;;;;;;;;;;;;;;5029160;28;20085;-78
2023/04/08 02:44:22;;;;;;;16.80;12.85;;;;;;;;;;5010812;28;20279;-79
2023/04/08 02:46:48;;;;;;;16.67;13.02;;;;;;;;;;5013275;28;20049;-79
2023/04/08 02:49:14;;;;;;;18.42;13.73;;;;;;;;;;5030198;28;20097;-79
2023/04/08 02:51:40;;;;;;;16.60;13.77;;;;;;;;;;5009224;28;20476;-79
2023/04/08 02:54:06;;;;;;;17.58;13.40;;;;;;;;;;5014176;28;20049;-79
2023/04/08 02:56:32;;;;;;;17.67;14.15;;;;;;;;;;5009151;28;20058;-78
2023/04/08 02:58:58;;;;;;;18.65;14.15;;;;;;;;;;5029790;28;20402;-79
2023/04/08 03:01:24;;;;;;;17.80;13.55;;;;;;;;;;5033164;28;20115;-79
2023/04/08 03:03:50;;;;;;;19.17;14.73;;;;;;;;;;5018480;28;20485;-79
2023/04/08 03:06:16;;;;;;;19.92;14.57;;;;;;;;;;5012340;28;20511;-79
2023/04/08 03:08:42;;;;;;;19.65;14.98;;;;;;;;;;5014976;28;20049;-79
2023/04/08 03:11:09;;;;;;;19.17;14.02;;;;;;;;;;5013504;28;20136;-79
2023/04/08 03:13:35;;;;;;;18.38;14.07;;;;;;;;;;5035369;28;20055;-79
2023/04/08 03:16:01;;;;;;;19.60;14.57;;;;;;;;;;5035249;28;20117;-79
2023/04/08 03:18:27;;;;;;;18.73;14.85;;;;;;;;;;5023904;28;20049;-78
2023/04/08 03:20:53;;;;;;;17.50;14.18;;;;;;;;;;5039213;28;20044;-79
2023/04/08 03:23:19;;;;;;;20.10;14.18;;;;;;;;;;5052203;28;20033;-78
2023/04/08 03:25:45;;;;;;;19.25;15.30;;;;;;;;;;5029741;28;20037;-79
2023/04/08 03:28:11;;;;;;;20.42;16.20;;;;;;;;;;5014245;28;20075;-80
2023/04/08 03:30:37;;;;;;;21.27;15.48;;;;;;;;;;5018313;28;20099;-79
2023/04/08 03:33:06;;;;;;;21.90;16.27;;;;;;;;;;5013586;28;20037;-78
2023/04/08 03:35:32;;;;;;;20.77;16.33;;;;;;;;;;5027460;28;20064;-79
2023/04/08 03:37:58;;;;;;;20.00;16.67;;;;;;;;;;5035411;28;20064;-79
2023/04/08 03:40:24;;;;;;;21.08;16.50;;;;;;;;;;5045412;28;20513;-79
2023/04/08 03:42:50;;;;;;;22.00;16.30;;;;;;;;;;5019008;28;20452;-78
2023/04/08 03:45:17;;;;;;;23.52;16.65;;;;;;;;;;5031274;28;20041;-78
2023/04/08 03:47:43;;;;;;;20.38;16.05;;;;;;;;;;5026252;28;20053;-78
2023/04/08 03:50:09;;;;;;;21.70;16.42;;;;;;;;;;5019297;28;20038;-78
2023/04/08 03:52:35;;;;;;;21.13;16.48;;;;;;;;;;5014995;28;20064;-79
2023/04/08 03:55:01;;;;;;;22.33;17.50;;;;;;;;;;5036967;28;20057;-79
2023/04/08 03:57:27;;;;;;;23.58;17.48;;;;;;;;;;5031262;28;20050;-79
2023/04/08 03:59:53;;;;;;;24.15;17.83;;;;;;;;;;5032842;28;20045;-79
2023/04/08 04:02:19;;;;;;;24.88;17.75;;;;;;;;;;5019488;28;20508;-79
2023/04/08 04:04:45;;;;;;;23.13;17.60;;;;;;;;;;5014565;28;20132;-79
2023/04/08 04:07:11;;;;;;;25.60;18.02;;;;;;;;;;5017134;28;20107;-79
2023/04/08 04:09:37;;;;;;;22.90;18.02;;;;;;;;;;5050805;28;20063;-79
2023/04/08 04:12:03;;;;;;;23.30;17.75;;;;;;;;;;5039631;28;20481;-79
2023/04/08 04:14:29;;;;;;;23.95;18.70;;;;;;;;;;5038315;28;20088;-79
2023/04/08 04:16:55;;;;;;;22.88;16.98;;;;;;;;;;5017862;28;20041;-79
2023/04/08 04:19:21;;;;;;;24.30;18.27;;;;;;;;;;5032147;28;20136;-79
2023/04/08 04:21:47;;;;;;;23.77;18.33;;;;;;;;;;5018291;28;20124;-79
2023/04/08 04:24:13;;;;;;;26.58;19.42;;;;;;;;;;5030876;28;20046;-79
2023/04/08 04:26:40;;;;;;;26.67;19.58;;;;;;;;;;5012746;28;20492;-79
2023/04/08 04:29:07;;;;;;;27.95;19.33;;;;;;;;;;5021995;28;20052;-79
2023/04/08 04:31:33;;;;;;;24.80;19.27;;;;;;;;;;5032997;28;20042;-79
2023/04/08 04:33:59;;;;;;;28.60;20.48;;;;;;;;;;5033612;28;20036;-78
2023/04/08 04:36:25;;;;;;;28.98;20.10;;;;;;;;;;5024826;28;20436;-79
2023/04/08 04:38:51;;;;;;;27.48;20.20;;;;;;;;;;5022630;28;20436;-79
2023/04/08 04:41:17;;;;;;;26.85;19.67;;;;;;;;;;5052426;28;20140;-79
2023/04/08 04:43:43;;;;;;;29.23;20.25;;;;;;;;;;5050418;28;20516;-79
2023/04/08 04:46:09;;;;;;;27.08;20.63;;;;;;;;;;5014580;28;20080;-79
2023/04/08 04:48:35;;;;;;;28.02;20.23;;;;;;;;;;5042753;28;20053;-79
2023/04/08 04:51:06;;;;;;;29.17;21.10;;;;;;;;;;5040432;28;20067;-79
2023/04/08 04:53:32;;;;;;;29.10;21.65;;;;;;;;;;5026141;28;20047;-79
2023/04/08 04:56:00;;;;;;;27.10;21.45;;;;;;;;;;5050954;28;20057;-79
2023/04/08 04:58:26;;;;;;;29.33;20.85;;;;;;;;;;5018745;28;20394;-79
2023/04/08 05:00:52;;;;;;;32.30;22.20;;;;;;;;;;5014049;28;20137;-79
2023/04/08 05:03:18;;;;;;;29.63;20.85;;;;;;;;;;5031377;28;20119;-79
2023/04/08 05:05:44;;;;;;;29.23;21.02;;;;;;;;;;5027133;28;20053;-79
2023/04/08 05:08:10;;;;;;;26.80;20.83;;;;;;;;;;5020248;28;20497;-80
2023/04/08 05:10:36;;;;;;;30.42;22.40;;;;;;;;;;5021223;28;20049;-80
2023/04/08 05:13:02;;;;;;;31.42;22.90;;;;;;;;;;5023235;28;20045;-79
2023/04/08 05:15:28;;;;;;;30.35;22.58;;;;;;;;;;5013987;28;20053;-80
2023/04/08 05:17:54;;;;;;;31.85;23.38;;;;;;;;;;5038860;28;20041;-80
2023/04/08 05:20:20;;;;;;;36.42;23.02;;;;;;;;;;5030048;28;20131;-80
2023/04/08 05:22:46;;;;;;;33.28;23.40;;;;;;;;;;5034930;28;20103;-79
2023/04/08 05:25:12;;;;;;;30.45;22.77;;;;;;;;;;5034229;28;20049;-79
2023/04/08 05:27:39;;;;;;;31.75;23.52;;;;;;;;;;5016092;28;20041;-79
2023/04/08 05:30:05;;;;;;;31.02;22.70;;;;;;;;;;5050001;28;20067;-79
2023/04/08 05:32:31;;;;;;;31.92;22.52;;;;;;;;;;5018857;28;20052;-79
2023/04/08 05:34:57;;;;;;;28.60;20.95;;;;;;;;;;5046483;28;20044;-80
2023/04/08 05:37:23;;;;;;;31.00;22.65;;;;;;;;;;5021165;28;20099;-79
2023/04/08 05:39:50;;;;;;;31.67;24.02;;;;;;;;;;5047872;28;20041;-80
2023/04/08 05:42:16;;;;;;;33.35;23.67;;;;;;;;;;5027730;28;20040;-79
2023/04/08 05:44:42;;;;;;;32.17;23.60;;;;;;;;;;5018278;28;20037;-79
2023/04/08 05:47:09;;;;;;;33.60;23.65;;;;;;;;;;5017142;28;20110;-80
2023/04/08 05:49:35;;;;;;;31.42;23.95;;;;;;;;;;5051494;28;20083;-79
2023/04/08 05:52:02;;;;;;;31.77;24.65;;;;;;;;;;5053605;28;20174;-80
2023/04/08 05:54:28;;;;;;;35.90;25.50;;;;;;;;;;5026015;28;20053;-79
2023/04/08 05:56:54;;;;;;;35.03;25.23;;;;;;;;;;5027297;28;20050;-80
2023/04/08 05:59:20;;;;;;;35.60;25.25;;;;;;;;;;5021851;28;20049;-79
2023/04/08 06:01:46;;;;;;;35.42;25.67;;;;;;;;;;5022962;28;20040;-80
2023/04/08 06:04:12;;;;;;;33.50;24.60;;;;;;;;;;5023546;28;20103;-79
2023/04/08 06:06:39;;;;;;;36.35;25.33;;;;;;;;;;5030585;28;20060;-79
2023/04/08 06:09:05;;;;;;;34.42;24.63;;;;;;;;;;5042138;28;20045;-80
2023/04/08 06:11:31;;;;;;;34.10;25.92;;;;;;;;;;5027938;28;20103;-79
2023/04/08 06:13:57;;;;;;;33.53;26.02;;;;;;;;;;5028332;28;20132;-79
2023/04/08 06:16:23;;;;;;;35.88;26.70;;;;;;;;;;5053379;28;20083;-80
2023/04/08 06:18:49;;;;;;;35.15;26.00;;;;;;;;;;5052581;28;20120;-79
2023/04/08 06:21:15;;;;;;;33.17;25.65;;;;;;;;;;5020376;28;20124;-79
2023/04/08 06:23:41;;;;;;;34.50;26.05;;;;;;;;;;5017266;28;20045;-80
2023/04/08 06:26:07;;;;;;;38.50;28.05;;;;;;;;;;5035233;28;20397;-80
2023/04/08 06:28:33;;;;;;;37.92;26.80;;;;;;;;;;5017731;28;20037;-80
2023/04/08 06:30:59;;;;;;;34.30;25.27;;;;;;;;;;5028890;28;20044;-80
2023/04/08 06:33:25;;;;;;;36.08;26.00;;;;;;;;;;5033352;28;20420;-79
2023/04/08 06:35:52;;;;;;;34.03;25.23;;;;;;;;;;5019801;28;20508;-79
2023/04/08 06:38:18;;;;;;;36.25;26.17;;;;;;;;;;5014988;28;20045;-79
2023/04/08 06:40:44;;;;;;;36.28;26.58;;;;;;;;;;5032391;28;20051;-79
2023/04/08 06:43:10;;;;;;;38.08;26.15;;;;;;;;;;5016076;28;20317;-79
2023/04/08 06:45:36;;;;;;;36.15;25.92;;;;;;;;;;5026997;28;20120;-79
2023/04/08 06:48:02;;;;;;;36.10;25.23;;;;;;;;;;5040564;28;20036;-79
2023/04/08 06:50:28;;;;;;;35.65;26.50;;;;;;;;;;5044934;28;20095;-79
2023/04/08 06:52:54;;;;;;;34.22;24.77;;;;;;;;;;5032661;28;20041;-79
2023/04/08 06:55:20;;;;;;;33.75;25.52;;;;;;;;;;5015860;28;20057;-79
2023/04/08 06:57:46;;;;;;;34.83;25.40;;;;;;;;;;5015660;28;20108;-79
2023/04/08 07:00:12;;;;;;;37.17;26.02;;;;;;;;;;5014677;28;20054;-79
2023/04/08 07:02:38;;;;;;;35.55;25.30;;;;;;;;;;5041720;28;20049;-80
2023/04/08 07:05:05;;;;;;;35.15;25.65;;;;;;;;;;5050034;28;20404;-79
2023/04/08 07:07:32;;;;;;;35.03;25.00;;;;;;;;;;5035572;28;20059;-79
2023/04/08 07:09:58;;;;;;;34.17;24.92;;;;;;;;;;5024573;28;20081;-79
2023/04/08 07:12:24;;;;;;;36.63;25.30;;;;;;;;;;5050008;28;20072;-77
2023/04/08 07:14:51;;;;;;;34.75;25.30;;;;;;;;;;5039760;28;20049;-79
2023/04/08 07:17:18;;;;;;;34.38;24.67;;;;;;;;;;5015671;28;20471;-79
2023/04/08 07:19:44;;;;;;;34.75;25.15;;;;;;;;;;5016176;28;20099;-80
2023/04/08 07:22:10;;;;;;;34.08;25.27;;;;;;;;;;5019850;28;20095;-79
2023/04/08 07:24:36;;;;;;;34.53;26.23;;;;;;;;;;5016216;28;20049;-79
2023/04/08 07:27:02;;;;;;;37.00;25.52;;;;;;;;;;5014522;28;20053;-79
2023/04/08 07:29:28;;;;;;;35.15;24.52;;;;;;;;;;5037035;28;20045;-79
2023/04/08 07:31:54;;;;;;;33.47;23.83;;;;;;;;;;5038708;28;20432;-79
2023/04/08 07:34:20;;;;;;;35.83;23.63;;;;;;;;;;5029798;28;20504;-79
2023/04/08 07:36:46;;;;;;;33.92;23.75;;;;;;;;;;5044183;28;20041;-79
2023/04/08 07:39:12;;;;;;;32.05;24.10;;;;;;;;;;5045887;28;20091;-79
2023/04/08 07:41:38;;;;;;;32.50;23.52;;;;;;;;;;5014783;28;20370;-79
2023/04/08 07:44:04;;;;;;;28.40;21.42;;;;;;;;;;5016103;28;20045;-79
2023/04/08 07:46:31;;;;;;;30.98;22.80;;;;;;;;;;5025717;28;20057;-79
2023/04/08 07:48:57;;;;;;;33.33;24.05;;;;;;;;;;5024241;28;20637;-79
2023/04/08 07:51:23;;;;;;;33.72;24.35;;;;;;;;;;5056669;28;20127;-80
2023/04/08 07:53:49;;;;;;;34.63;24.75;;;;;;;;;;5025343;28;20199;-80
2023/04/08 07:56:17;;;;;;;33.50;23.13;;;;;;;;;;5017363;28;20088;-79
2023/04/08 07:58:43;;;;;;;31.48;24.00;;;;;;;;;;5014894;28;20053;-80
2023/04/08 08:01:22;;;;;;;29.58;22.38;;;;;;;;;;5013831;28;20084;-79
2023/04/08 08:03:49;;;;;;;31.88;23.90;;;;;;;;;;5014741;28;20056;-80
2023/04/08 08:06:15;;;;;;;31.33;23.52;;;;;;;;;;5038275;28;20055;-79
2023/04/08 08:08:41;;;;;;;31.25;22.25;;;;;;;;;;5015518;28;20097;-79
2023/04/08 08:11:07;;;;;;;32.88;23.08;;;;;;;;;;5045694;28;20041;-79
2023/04/08 08:13:34;;;;;;;31.02;22.40;;;;;;;;;;5015321;28;20053;-79
2023/04/08 08:16:00;;;;;;;30.88;20.88;;;;;;;;;;5019353;28;20041;-79
2023/04/08 08:18:26;;;;;;;30.58;23.00;;;;;;;;;;5034266;28;20039;-79
2023/04/08 08:20:52;;;;;;;27.67;21.23;;;;;;;;;;5018171;28;20489;-79
2023/04/08 08:23:18;;;;;;;27.83;21.50;;;;;;;;;;5036631;28;20041;-79
2023/04/08 08:25:44;;;;;;;29.67;21.35;;;;;;;;;;5034141;28;20042;-78
2023/04/08 08:28:10;;;;;;;27.73;21.45;;;;;;;;;;5044963;28;20043;-78
2023/04/08 08:30:37;;;;;;;24.33;19.63;;;;;;;;;;5040338;28;20045;-78
2023/04/08 08:33:03;;;;;;;31.45;20.65;;;;;;;;;;5034864;28;20501;-78
2023/04/08 08:35:29;;;;;;;27.77;19.83;;;;;;;;;;5013005;28;20045;-78
2023/04/08 08:37:55;;;;;;;26.35;20.33;;;;;;;;;;5030356;28;20481;-79
2023/04/08 08:40:21;;;;;;;25.73;20.63;;;;;;;;;;5016026;28;20049;-79
2023/04/08 08:42:51;;;;;;;27.13;19.50;;;;;;;;;;5023159;28;20049;-78
2023/04/08 08:45:18;;;;;;;28.05;19.98;;;;;;;;;;5019082;28;20076;-78
2023/04/08 08:47:44;;;;;;;26.38;20.08;;;;;;;;;;5042394;28;20055;-78
2023/04/08 08:50:10;;;;;;;24.20;18.88;;;;;;;;;;5027650;28;20440;-78
2023/04/08 08:52:36;;;;;;;25.58;20.15;;;;;;;;;;5034385;28;20045;-78
2023/04/08 08:55:02;;;;;;;23.88;18.20;;;;;;;;;;5031760;28;20053;-78
2023/04/08 08:57:28;;;;;;;24.50;18.90;;;;;;;;;;5036094;28;20068;-79
2023/04/08 08:59:54;;;;;;;21.15;16.80;;;;;;;;;;5042903;28;20045;-78
2023/04/08 09:02:29;;;;;;;20.80;16.23;;;;;;;;;;5047165;28;20041;-79
2023/04/08 09:04:59;;;;;;;19.27;14.80;;;;;;;;;;5048891;28;20393;-77
2023/04/08 09:07:26;;;;;;;22.33;16.08;;;;;;;;;;5011111;28;20077;-78
2023/04/08 09:09:53;;;;;;;19.55;15.65;;;;;;;;;;5043609;28;20064;-78
2023/04/08 09:12:20;;;;;;;21.23;15.95;;;;;;;;;;5033923;28;20100;-77
2023/04/08 09:14:47;;;;;;;19.40;15.60;;;;;;;;;;5043466;28;20075;-77
2023/04/08 09:17:13;;;;;;;20.88;16.20;;;;;;;;;;5041665;28;20037;-77
2023/04/08 09:19:39;;;;;;;21.77;16.98;;;;;;;;;;5037611;28;20040;-78
2023/04/08 09:22:09;;;;;;;19.58;15.35;;;;;;;;;;5027784;28;20041;-77
2023/04/08 09:24:36;;;;;;;18.80;14.85;;;;;;;;;;5014922;28;20048;-78
2023/04/08 09:27:03;;;;;;;18.40;13.55;;;;;;;;;;5012316;28;20041;-78
2023/04/08 09:29:29;;;;;;;18.35;14.07;;;;;;;;;;5032402;28;20049;-78
2023/04/08 09:31:59;;;;;;;16.40;13.23;;;;;;;;;;5034556;28;20106;-77
2023/04/08 09:34:26;;;;;;;18.20;13.73;;;;;;;;;;5032468;28;20053;-77
2023/04/08 09:36:52;;;;;;;16.13;12.50;;;;;;;;;;5033854;28;20037;-78
2023/04/08 09:39:18;;;;;;;15.32;12.23;;;;;;;;;;5015593;28;20459;-78
2023/04/08 09:41:47;;;;;;;16.17;11.88;;;;;;;;;;5016485;28;20635;-77
2023/04/08 09:44:15;;;;;;;15.60;11.35;;;;;;;;;;5014342;28;20048;-77
2023/04/08 09:46:47;;;;;;;16.10;12.15;;;;;;;;;;5037229;28;20045;-77
2023/04/08 09:49:34;;;;;;;15.15;11.23;;;;;;;;;;5024646;28;20060;-78
2023/04/08 09:52:20;;;;;;;15.48;11.43;;;;;;;;;;5034164;28;20162;-78
2023/04/08 09:54:52;;;;;;;17.02;12.27;;;;;;;;;;5014756;28;20103;-77
2023/04/08 09:57:40;;;;;;;14.80;12.38;;;;;;;;;;5014875;28;20052;-78
2023/04/08 10:00:09;;;;;;;15.35;11.75;;;;;;;;;;5014714;28;20053;-77
2023/04/08 10:02:40;;;;;;;14.50;11.90;;;;;;;;;;5013084;28;20045;-77
2023/04/08 10:05:07;;;;;;;16.63;11.88;;;;;;;;;;5016550;28;20095;-77
2023/04/08 10:07:35;;;;;;;16.10;11.38;;;;;;;;;;5043713;28;20124;-77
2023/04/08 10:10:01;;;;;;;18.20;13.05;;;;;;;;;;5034867;28;20045;-78
2023/04/08 10:12:27;;;;;;;16.48;13.18;;;;;;;;;;5018431;28;20061;-77
2023/04/08 10:15:12;;;;;;;15.68;12.02;;;;;;;;;;5032587;28;20037;-77
2023/04/08 10:17:38;;;;;;;15.07;12.18;;;;;;;;;;5026002;28;20056;-78
2023/04/08 10:20:04;;;;;;;17.38;12.18;;;;;;;;;;5020281;28;20037;-78
2023/04/08 10:22:33;;;;;;;15.63;12.43;;;;;;;;;;5019141;28;20049;-78
2023/04/08 10:25:15;;;;;;;15.60;12.88;;;;;;;;;;5019420;28;20103;-78
2023/04/08 10:27:41;;;;;;;15.07;12.98;;;;;;;;;;5037592;28;20386;-78
2023/04/08 10:30:30;;;;;;;15.90;12.50;;;;;;;;;;5043592;28;20041;-78
2023/04/08 10:33:00;;;;;;;14.30;11.50;;;;;;;;;;5005799;28;20049;-79
2023/04/08 10:35:34;;;;;;;17.10;12.30;;;;;;;;;;5013118;28;20551;-78
2023/04/08 10:38:00;;;;;;;16.65;13.05;;;;;;;;;;5015512;28;20055;-78
2023/04/08 10:40:26;;;;;;;16.08;13.70;;;;;;;;;;5015482;28;20397;-78
2023/04/08 10:42:55;;;;;;;19.42;14.00;;;;;;;;;;5036030;28;20037;-78
2023/04/08 10:45:21;;;;;;;14.82;13.18;;;;;;;;;;5034452;28;20041;-78
2023/04/08 10:47:47;;;;;;;17.02;13.15;;;;;;;;;;5032298;28;20053;-78
2023/04/08 10:50:17;;;;;;;15.07;13.07;;;;;;;;;;5031013;28;20453;-78
2023/04/08 10:52:50;;;;;;;18.65;12.98;;;;;;;;;;5030938;28;20134;-79
2023/04/08 10:55:22;;;;;;;15.10;12.73;;;;;;;;;;5012594;28;20057;-80
2023/04/08 10:57:50;;;;;;;18.23;13.85;;;;;;;;;;5034336;28;20492;-77
2023/04/08 11:00:19;;;;;;;16.23;12.80;;;;;;;;;;5031824;28;20497;-78
2023/04/08 11:02:46;;;;;;;16.65;13.25;;;;;;;;;;5045895;28;20098;-78
2023/04/08 11:05:12;;;;;;;18.23;13.48;;;;;;;;;;5020373;28;21447;-79
2023/04/08 11:07:41;;;;;;;14.82;12.77;;;;;;;;;;5028738;28;20132;-80
2023/04/08 11:10:08;;;;;;;15.38;11.68;;;;;;;;;;5033531;28;20045;-78
2023/04/08 11:12:36;;;;;;;13.73;11.63;;;;;;;;;;5031219;28;20468;-79
2023/04/08 11:15:02;;;;;;;14.25;11.32;;;;;;;;;;5023707;28;20052;-80
2023/04/08 11:17:29;;;;;;;14.27;11.75;;;;;;;;;;5027998;28;20041;-80
2023/04/08 11:20:00;;;;;;;14.15;12.48;;;;;;;;;;5013960;28;20129;-79
2023/04/08 11:22:29;;;;;;;16.25;12.70;;;;;;;;;;5019136;28;20117;-79
2023/04/08 11:24:56;;;;;;;14.75;12.57;;;;;;;;;;5035214;28;20502;-79
2023/04/08 11:27:24;;;;;;;16.52;13.55;;;;;;;;;;5014209;28;20098;-79
2023/04/08 11:29:51;;;;;;;16.75;12.90;;;;;;;;;;5037381;28;20913;-80
2023/04/08 11:32:17;;;;;;;14.73;12.07;;;;;;;;;;5017240;28;20048;-79
2023/04/08 11:34:43;;;;;;;16.83;12.95;;;;;;;;;;5016105;28;20099;-79
2023/04/08 11:37:09;;;;;;;13.52;10.50;;;;;;;;;;5038838;28;20046;-79
2023/04/08 11:39:41;;;;;;;15.80;12.50;;;;;;;;;;5017780;28;20122;-79
2023/04/08 11:42:07;;;;;;;16.83;13.57;;;;;;;;;;5013045;28;20049;-79
2023/04/08 11:44:33;;;;;;;17.13;13.55;;;;;;;;;;5024258;28;20056;-78
2023/04/08 11:47:00;;;;;;;16.33;13.65;;;;;;;;;;5030785;28;20416;-79
2023/04/08 11:49:27;;;;;;;17.45;13.70;;;;;;;;;;5032110;28;20049;-79
2023/04/08 11:51:55;;;;;;;16.17;13.57;;;;;;;;;;5024744;28;20033;-80
2023/04/08 11:54:28;;;;;;;16.33;13.10;;;;;;;;;;5017629;28;20405;-80
2023/04/08 11:56:54;;;;;;;16.75;13.15;;;;;;;;;;5017852;28;20107;-80
2023/04/08 11:59:21;;;;;;;15.10;12.23;;;;;;;;;;5037757;28;20120;-80
2023/04/08 12:01:47;;;;;;;16.27;13.90;;;;;;;;;;5027363;28;20056;-80
2023/04/08 12:04:13;;;;;;;16.98;14.32;;;;;;;;;;5038599;28;20092;-80
2023/04/08 12:06:42;;;;;;;17.88;14.60;;;;;;;;;;5037842;28;20049;-81
2023/04/08 12:09:08;;;;;;;17.42;14.05;;;;;;;;;;5024983;28;20139;-80
2023/04/08 12:11:34;;;;;;;19.58;13.98;;;;;;;;;;5021181;28;20051;-80
2023/04/08 12:14:00;;;;;;;19.83;15.55;;;;;;;;;;5043201;28;20060;-80
2023/04/08 12:16:26;;;;;;;19.00;14.52;;;;;;;;;;5028207;28;20049;-80
2023/04/08 12:18:52;;;;;;;19.83;15.02;;;;;;;;;;5037960;28;20045;-80
2023/04/08 12:21:18;;;;;;;26.95;20.10;;;;;;;;;;5028994;28;20083;-80
2023/04/08 12:23:44;;;;;;;18.40;14.20;;;;;;;;;;5026595;28;20493;-79
2023/04/08 12:26:10;;;;;;;18.88;14.60;;;;;;;;;;5042621;28;20517;-80
2023/04/08 12:28:36;;;;;;;18.15;14.27;;;;;;;;;;5020450;28;20052;-81
2023/04/08 12:31:02;;;;;;;17.63;14.57;;;;;;;;;;5032118;28;20056;-80
2023/04/08 12:33:29;;;;;;;17.70;13.23;;;;;;;;;;5008950;28;20049;-80
2023/04/08 12:35:56;;;;;;;17.20;14.50;;;;;;;;;;5010830;28;20061;-78
2023/04/08 12:38:23;;;;;;;18.88;13.93;;;;;;;;;;5009913;28;20076;-80
2023/04/08 12:40:49;;;;;;;17.05;14.00;;;;;;;;;;5030785;28;20044;-81
2023/04/08 12:43:15;;;;;;;15.95;13.25;;;;;;;;;;5012762;28;20041;-80
2023/04/08 12:45:42;;;;;;;17.92;13.00;;;;;;;;;;5017090;28;20496;-80
2023/04/08 12:48:08;;;;;;;18.77;13.65;;;;;;;;;;5013600;28;20080;-80
2023/04/08 12:50:34;;;;;;;19.27;13.45;;;;;;;;;;5042651;28;20047;-80
2023/04/08 12:53:00;;;;;;;17.30;13.25;;;;;;;;;;5038728;28;20392;-80
2023/04/08 12:55:26;;;;;;;19.73;14.32;;;;;;;;;;5013805;28;20196;-80
2023/04/08 12:57:52;;;;;;;19.23;14.20;;;;;;;;;;5017785;28;20451;-80
2023/04/08 13:00:18;;;;;;;19.90;14.35;;;;;;;;;;5019446;28;20077;-80
2023/04/08 13:02:45;;;;;;;18.40;12.65;;;;;;;;;;5021623;28;20481;-80
2023/04/08 13:05:11;;;;;;;18.35;12.48;;;;;;;;;;5039855;28;20563;-80
2023/04/08 13:07:37;;;;;;;17.75;12.88;;;;;;;;;;5018889;28;20056;-81
2023/04/08 13:10:05;;;;;;;19.38;13.20;;;;;;;;;;5040498;28;20393;-80
2023/04/08 13:12:32;;;;;;;17.73;13.45;;;;;;;;;;5017246;28;20060;-79
2023/04/08 13:14:59;;;;;;;27.48;18.30;;;;;;;;;;5023025;28;20060;-80
2023/04/08 13:17:25;;;;;;;23.55;16.58;;;;;;;;;;5028197;28;20174;-80
2023/04/08 13:19:51;;;;;;;22.42;15.55;;;;;;;;;;5042795;28;20465;-81
2023/04/08 13:22:17;;;;;;;21.92;16.40;;;;;;;;;;5014196;28;20290;-80
2023/04/08 13:24:43;;;;;;;26.67;17.33;;;;;;;;;;5022101;28;20049;-80
2023/04/08 13:27:09;;;;;;;24.98;16.42;;;;;;;;;;5018010;28;20520;-80
2023/04/08 13:29:35;;;;;;;24.45;16.17;;;;;;;;;;5015069;28;20045;-80
2023/04/08 13:32:01;;;;;;;26.50;17.15;;;;;;;;;;5017241;28;20045;-80
2023/04/08 13:34:27;;;;;;;25.50;17.08;;;;;;;;;;5035145;28;20053;-79
2023/04/08 13:36:53;;;;;;;28.90;17.63;;;;;;;;;;5040880;28;20429;-80
2023/04/08 13:39:19;;;;;;;27.80;18.27;;;;;;;;;;5042372;28;20657;-81
2023/04/08 13:41:46;;;;;;;24.70;17.35;;;;;;;;;;5038803;28;20563;-80
2023/04/08 13:44:12;;;;;;;23.70;16.90;;;;;;;;;;5026465;28;20056;-80
2023/04/08 13:46:38;;;;;;;25.27;17.38;;;;;;;;;;5028011;28;20396;-80
2023/04/08 13:49:04;;;;;;;22.40;15.57;;;;;;;;;;5036551;28;20045;-81
2023/04/08 13:51:30;;;;;;;24.25;15.80;;;;;;;;;;5020274;28;20095;-80
2023/04/08 13:53:56;;;;;;;23.52;17.42;;;;;;;;;;5034572;28;20052;-81
2023/04/08 13:56:22;;;;;;;26.27;16.55;;;;;;;;;;5038679;28;20060;-81
2023/04/08 13:58:48;;;;;;;24.30;15.93;;;;;;;;;;5043668;28;20152;-80
2023/04/08 14:01:14;;;;;;;23.35;15.88;;;;;;;;;;5014682;28;20056;-81
2023/04/08 14:03:41;;;;;;;23.58;16.30;;;;;;;;;;5028714;28;20503;-80
2023/04/08 14:06:07;;;;;;;22.92;16.33;;;;;;;;;;5021256;28;20432;-80
2023/04/08 14:08:33;;;;;;;23.73;15.95;;;;;;;;;;5028090;28;20166;-80
2023/04/08 14:10:59;;;;;;;23.25;15.30;;;;;;;;;;5019876;28;20503;-80
2023/04/08 14:13:25;;;;;;;22.17;15.95;;;;;;;;;;5018609;28;20073;-80
2023/04/08 14:15:53;;;;;;;26.38;17.88;;;;;;;;;;5022578;28;20069;-80
2023/04/08 14:18:19;;;;;;;23.83;16.67;;;;;;;;;;5018737;28;20056;-80
2023/04/08 14:20:46;;;;;;;25.27;18.20;;;;;;;;;;5022814;28;20076;-80